sensor_id;sensor_type;location;lat;lon;timestamp;P1;durP1;ratioP1;P2;durP2;ratioP2
54408;SDS011;40315;48.620;9.828;2023-07-13T00:14:52;2.38;;;1.40;;
54408;SDS011;40315;48.620;9.828;2023-07-13T00:17:21;2.10;;;1.52;;
54408;SDS011;40315;48.620;9.828;2023-07-13T00:19:48;2.08;;;1.80;;
54408;SDS011;40315;48.620;9.828;2023-07-13T00:22:15;3.47;;;1.42;;
54408;SDS011;40315;48.620;9.828;2023-07-13T00:24:43;2.80;;;1.63;;
54408;SDS011;40315;48.620;9.828;2023-07-13T00:27:11;3.55;;;1.50;;
54408;SDS011;40315;48.620;9.828;2023-07-13T00:29:38;5.45;;;1.88;;
54408;SDS011;40315;48.620;9.828;2023-07-13T00:32:10;3.65;;;1.88;;
54408;SDS011;40315;48.620;9.828;2023-07-13T00:34:37;2.40;;;1.73;;
54408;SDS011;40315;48.620;9.828;2023-07-13T00:37:07;2.90;;;1.70;;
54408;SDS011;40315;48.620;9.828;2023-07-13T00:39:36;3.10;;;1.60;;
54408;SDS011;40315;48.620;9.828;2023-07-13T00:42:06;2.92;;;1.95;;
54408;SDS011;40315;48.620;9.828;2023-07-13T00:44:33;3.70;;;1.90;;
54408;SDS011;40315;48.620;9.828;2023-07-13T00:47:00;2.83;;;1.23;;
54408;SDS011;40315;48.620;9.828;2023-07-13T00:49:29;3.22;;;1.73;;
54408;SDS011;40315;48.620;9.828;2023-07-13T00:51:59;2.30;;;1.20;;
54408;SDS011;40315;48.620;9.828;2023-07-13T00:54:29;1.85;;;1.55;;
54408;SDS011;40315;48.620;9.828;2023-07-13T00:57:00;2.13;;;1.20;;
54408;SDS011;40315;48.620;9.828;2023-07-13T00:59:30;1.30;;;1.17;;
54408;SDS011;40315;48.620;9.828;2023-07-13T01:02:02;3.38;;;1.00;;
54408;SDS011;40315;48.620;9.828;2023-07-13T01:04:35;2.03;;;0.80;;
54408;SDS011;40315;48.620;9.828;2023-07-13T01:07:03;2.45;;;1.00;;
54408;SDS011;40315;48.620;9.828;2023-07-13T01:09:34;1.55;;;1.02;;
54408;SDS011;40315;48.620;9.828;2023-07-13T01:12:12;3.10;;;1.15;;
54408;SDS011;40315;48.620;9.828;2023-07-13T01:14:42;2.83;;;1.25;;
54408;SDS011;40315;48.620;9.828;2023-07-13T01:17:09;2.53;;;1.10;;
54408;SDS011;40315;48.620;9.828;2023-07-13T01:19:39;2.65;;;1.10;;
54408;SDS011;40315;48.620;9.828;2023-07-13T01:22:13;1.48;;;0.95;;
54408;SDS011;40315;48.620;9.828;2023-07-13T01:24:42;2.67;;;1.20;;
54408;SDS011;40315;48.620;9.828;2023-07-13T01:27:11;3.05;;;1.10;;
54408;SDS011;40315;48.620;9.828;2023-07-13T01:29:40;2.10;;;1.00;;
54408;SDS011;40315;48.620;9.828;2023-07-13T01:32:09;2.75;;;1.10;;
54408;SDS011;40315;48.620;9.828;2023-07-13T01:34:38;2.25;;;1.20;;
54408;SDS011;40315;48.620;9.828;2023-07-13T01:37:07;2.38;;;0.90;;
54408;SDS011;40315;48.620;9.828;2023-07-13T01:39:36;2.17;;;1.08;;
54408;SDS011;40315;48.620;9.828;2023-07-13T01:42:03;3.28;;;1.10;;
54408;SDS011;40315;48.620;9.828;2023-07-13T01:44:30;1.80;;;0.82;;
54408;SDS011;40315;48.620;9.828;2023-07-13T01:46:57;2.25;;;1.00;;
54408;SDS011;40315;48.620;9.828;2023-07-13T19:08:38;1.60;;;1.10;;
54408;SDS011;40315;48.620;9.828;2023-07-13T19:11:08;1.80;;;1.20;;
54408;SDS011;40315;48.620;9.828;2023-07-13T19:13:39;4.22;;;1.60;;
54408;SDS011;40315;48.620;9.828;2023-07-13T19:16:07;2.75;;;1.30;;
54408;SDS011;40315;48.620;9.828;2023-07-13T19:18:35;2.92;;;1.38;;
54408;SDS011;40315;48.620;9.828;2023-07-13T19:21:04;1.75;;;1.40;;
54408;SDS011;40315;48.620;9.828;2023-07-13T19:23:37;3.22;;;1.60;;
54408;SDS011;40315;48.620;9.828;2023-07-13T19:26:12;3.10;;;1.60;;
54408;SDS011;40315;48.620;9.828;2023-07-13T19:28:44;4.03;;;1.70;;
54408;SDS011;40315;48.620;9.828;2023-07-13T19:31:16;3.20;;;1.65;;
54408;SDS011;40315;48.620;9.828;2023-07-13T19:33:47;4.57;;;1.60;;
54408;SDS011;40315;48.620;9.828;2023-07-13T19:36:16;5.38;;;1.75;;
54408;SDS011;40315;48.620;9.828;2023-07-13T19:38:50;2.03;;;1.70;;
54408;SDS011;40315;48.620;9.828;2023-07-13T19:41:18;3.17;;;1.88;;
54408;SDS011;40315;48.620;9.828;2023-07-13T19:43:47;3.70;;;1.92;;
54408;SDS011;40315;48.620;9.828;2023-07-13T19:46:18;3.00;;;1.98;;
54408;SDS011;40315;48.620;9.828;2023-07-13T19:48:51;5.22;;;1.90;;
54408;SDS011;40315;48.620;9.828;2023-07-13T19:51:19;3.92;;;1.90;;
54408;SDS011;40315;48.620;9.828;2023-07-13T19:53:47;4.82;;;2.10;;
54408;SDS011;40315;48.620;9.828;2023-07-13T19:56:17;4.15;;;2.28;;
54408;SDS011;40315;48.620;9.828;2023-07-13T19:58:44;7.15;;;5.03;;
54408;SDS011;40315;48.620;9.828;2023-07-13T20:01:14;5.57;;;4.22;;
54408;SDS011;40315;48.620;9.828;2023-07-13T20:03:42;3.35;;;2.22;;
54408;SDS011;40315;48.620;9.828;2023-07-13T20:06:14;3.88;;;1.73;;
54408;SDS011;40315;48.620;9.828;2023-07-13T20:08:50;4.18;;;1.77;;
54408;SDS011;40315;48.620;9.828;2023-07-13T20:11:18;2.08;;;1.42;;
54408;SDS011;40315;48.620;9.828;2023-07-13T20:13:48;2.45;;;1.45;;
54408;SDS011;40315;48.620;9.828;2023-07-13T20:16:15;3.25;;;1.80;;
54408;SDS011;40315;48.620;9.828;2023-07-13T20:18:43;2.45;;;1.50;;
54408;SDS011;40315;48.620;9.828;2023-07-13T20:21:12;3.22;;;1.70;;
54408;SDS011;40315;48.620;9.828;2023-07-13T20:23:40;2.38;;;1.80;;
54408;SDS011;40315;48.620;9.828;2023-07-13T20:26:08;2.58;;;1.60;;
54408;SDS011;40315;48.620;9.828;2023-07-13T20:28:40;2.63;;;1.63;;
54408;SDS011;40315;48.620;9.828;2023-07-13T20:31:10;2.13;;;1.70;;
54408;SDS011;40315;48.620;9.828;2023-07-13T20:33:39;5.30;;;1.75;;
54408;SDS011;40315;48.620;9.828;2023-07-13T20:36:09;5.18;;;1.70;;
54408;SDS011;40315;48.620;9.828;2023-07-13T20:38:42;3.90;;;1.80;;
54408;SDS011;40315;48.620;9.828;2023-07-13T20:41:12;4.25;;;1.75;;
54408;SDS011;40315;48.620;9.828;2023-07-13T20:43:42;2.97;;;1.88;;
54408;SDS011;40315;48.620;9.828;2023-07-13T20:46:11;3.83;;;1.90;;
54408;SDS011;40315;48.620;9.828;2023-07-13T20:48:43;4.75;;;1.83;;
54408;SDS011;40315;48.620;9.828;2023-07-13T20:51:15;3.80;;;2.00;;
54408;SDS011;40315;48.620;9.828;2023-07-13T20:53:45;4.38;;;1.60;;
54408;SDS011;40315;48.620;9.828;2023-07-13T20:56:13;3.33;;;1.95;;
54408;SDS011;40315;48.620;9.828;2023-07-13T20:58:43;4.65;;;1.80;;
54408;SDS011;40315;48.620;9.828;2023-07-13T21:01:13;6.07;;;1.60;;
54408;SDS011;40315;48.620;9.828;2023-07-13T21:03:45;3.63;;;1.60;;
54408;SDS011;40315;48.620;9.828;2023-07-13T21:06:15;4.25;;;1.80;;
54408;SDS011;40315;48.620;9.828;2023-07-13T21:08:44;2.60;;;1.60;;
54408;SDS011;40315;48.620;9.828;2023-07-13T21:11:12;3.40;;;1.60;;
54408;SDS011;40315;48.620;9.828;2023-07-13T21:13:43;4.95;;;1.80;;
54408;SDS011;40315;48.620;9.828;2023-07-13T21:16:15;4.85;;;1.60;;
54408;SDS011;40315;48.620;9.828;2023-07-13T21:18:48;2.60;;;1.55;;
54408;SDS011;40315;48.620;9.828;2023-07-13T21:21:17;2.08;;;1.52;;
54408;SDS011;40315;48.620;9.828;2023-07-13T21:23:49;3.42;;;1.83;;
54408;SDS011;40315;48.620;9.828;2023-07-13T21:26:18;3.15;;;1.50;;
54408;SDS011;40315;48.620;9.828;2023-07-13T21:28:48;3.85;;;1.40;;
54408;SDS011;40315;48.620;9.828;2023-07-13T21:31:17;3.72;;;1.67;;
54408;SDS011;40315;48.620;9.828;2023-07-13T21:33:48;4.07;;;1.75;;
54408;SDS011;40315;48.620;9.828;2023-07-13T21:36:16;3.95;;;1.70;;
54408;SDS011;40315;48.620;9.828;2023-07-13T21:38:45;3.85;;;1.80;;
54408;SDS011;40315;48.620;9.828;2023-07-13T21:41:19;1.98;;;1.70;;
54408;SDS011;40315;48.620;9.828;2023-07-13T21:43:55;3.80;;;1.70;;
54408;SDS011;40315;48.620;9.828;2023-07-13T21:46:26;2.60;;;1.60;;
54408;SDS011;40315;48.620;9.828;2023-07-13T21:48:55;4.20;;;1.77;;
54408;SDS011;40315;48.620;9.828;2023-07-13T21:51:26;3.72;;;1.42;;
54408;SDS011;40315;48.620;9.828;2023-07-13T21:53:54;5.97;;;1.70;;
54408;SDS011;40315;48.620;9.828;2023-07-13T21:56:22;2.63;;;1.60;;
54408;SDS011;40315;48.620;9.828;2023-07-13T21:58:50;1.98;;;1.55;;
54408;SDS011;40315;48.620;9.828;2023-07-13T22:01:20;1.92;;;1.40;;
54408;SDS011;40315;48.620;9.828;2023-07-13T22:03:50;4.40;;;1.83;;
54408;SDS011;40315;48.620;9.828;2023-07-13T22:06:21;2.47;;;1.73;;
54408;SDS011;40315;48.620;9.828;2023-07-13T22:08:53;4.55;;;1.85;;
54408;SDS011;40315;48.620;9.828;2023-07-13T22:11:23;3.15;;;1.85;;
54408;SDS011;40315;48.620;9.828;2023-07-13T22:13:51;5.55;;;1.98;;
54408;SDS011;40315;48.620;9.828;2023-07-13T22:16:21;2.33;;;1.70;;
54408;SDS011;40315;48.620;9.828;2023-07-13T22:18:50;3.83;;;1.92;;
54408;SDS011;40315;48.620;9.828;2023-07-13T22:21:19;3.05;;;2.10;;
54408;SDS011;40315;48.620;9.828;2023-07-13T22:23:46;3.63;;;1.90;;
54408;SDS011;40315;48.620;9.828;2023-07-13T22:26:20;3.45;;;1.80;;
54408;SDS011;40315;48.620;9.828;2023-07-13T22:28:52;6.00;;;2.13;;
54408;SDS011;40315;48.620;9.828;2023-07-13T22:31:24;2.17;;;1.65;;
54408;SDS011;40315;48.620;9.828;2023-07-13T22:33:53;3.10;;;1.63;;
54408;SDS011;40315;48.620;9.828;2023-07-13T22:36:20;3.65;;;1.77;;
54408;SDS011;40315;48.620;9.828;2023-07-13T22:38:48;3.80;;;1.60;;
54408;SDS011;40315;48.620;9.828;2023-07-13T22:41:16;5.30;;;1.88;;
54408;SDS011;40315;48.620;9.828;2023-07-13T22:43:44;4.15;;;1.95;;
54408;SDS011;40315;48.620;9.828;2023-07-13T22:46:12;3.95;;;1.88;;
54408;SDS011;40315;48.620;9.828;2023-07-13T22:48:54;4.53;;;1.80;;
54408;SDS011;40315;48.620;9.828;2023-07-13T22:51:23;6.15;;;1.92;;
54408;SDS011;40315;48.620;9.828;2023-07-13T22:53:53;2.78;;;1.63;;
54408;SDS011;40315;48.620;9.828;2023-07-13T22:56:24;4.30;;;1.88;;
54408;SDS011;40315;48.620;9.828;2023-07-13T22:58:52;2.97;;;1.80;;
54408;SDS011;40315;48.620;9.828;2023-07-13T23:01:20;5.35;;;1.75;;
54408;SDS011;40315;48.620;9.828;2023-07-13T23:03:53;3.08;;;2.00;;
54408;SDS011;40315;48.620;9.828;2023-07-13T23:06:25;5.25;;;2.00;;
54408;SDS011;40315;48.620;9.828;2023-07-13T23:08:53;5.57;;;1.70;;
54408;SDS011;40315;48.620;9.828;2023-07-13T23:11:21;4.53;;;1.95;;
54408;SDS011;40315;48.620;9.828;2023-07-13T23:13:52;3.22;;;1.77;;
54408;SDS011;40315;48.620;9.828;2023-07-13T23:16:21;3.72;;;1.60;;
54408;SDS011;40315;48.620;9.828;2023-07-13T23:18:52;4.28;;;1.70;;
54408;SDS011;40315;48.620;9.828;2023-07-13T23:21:20;3.75;;;1.90;;
54408;SDS011;40315;48.620;9.828;2023-07-13T23:23:48;3.20;;;2.00;;
54408;SDS011;40315;48.620;9.828;2023-07-13T23:26:16;2.70;;;1.40;;
54408;SDS011;40315;48.620;9.828;2023-07-13T23:28:45;3.22;;;1.77;;
54408;SDS011;40315;48.620;9.828;2023-07-13T23:31:16;3.28;;;1.50;;
54408;SDS011;40315;48.620;9.828;2023-07-13T23:33:46;3.92;;;1.67;;
54408;SDS011;40315;48.620;9.828;2023-07-13T23:36:18;2.60;;;1.60;;
54408;SDS011;40315;48.620;9.828;2023-07-13T23:38:46;3.70;;;1.88;;
54408;SDS011;40315;48.620;9.828;2023-07-13T23:41:14;3.35;;;2.00;;
54408;SDS011;40315;48.620;9.828;2023-07-13T23:43:42;4.88;;;2.00;;
54408;SDS011;40315;48.620;9.828;2023-07-13T23:46:15;5.20;;;1.90;;
54408;SDS011;40315;48.620;9.828;2023-07-13T23:48:50;3.20;;;1.67;;
54408;SDS011;40315;48.620;9.828;2023-07-13T23:51:25;3.45;;;1.58;;
54408;SDS011;40315;48.620;9.828;2023-07-13T23:53:52;4.70;;;1.55;;
54408;SDS011;40315;48.620;9.828;2023-07-13T23:56:19;2.50;;;1.88;;
54408;SDS011;40315;48.620;9.828;2023-07-13T23:58:51;3.38;;;1.60;;
